Time;durP1;ratioP1;P1;durP2;ratioP2;P2;SDS_P1;SDS_P2;PMS_P1;PMS_P2;Temp;Humidity;BMP_temperature;BMP_pressure;BME280_temperature;BME280_humidity;BME280_pressure;Samples;Min_cycle;Max_cycle;Signal;HPM_P1;HPM_P2
2023/10/26 00:02:35;;;;;;;0.45;0.40;;;12.40;99.90;;;;;;6246127;28;20147;-76
2023/10/26 00:05:37;;;;;;;0.40;0.40;;;12.40;99.90;;;;;;6245471;28;20041;-77
2023/10/26 00:08:38;;;;;;;1.88;0.63;;;12.40;99.90;;;;;;6246014;28;20506;-78
2023/10/26 00:11:40;;;;;;;0.47;0.47;;;12.40;99.90;;;;;;6246788;28;20068;-76
2023/10/26 00:14:43;;;;;;;0.57;0.57;;;12.40;99.90;;;;;;6245982;28;20052;-77
2023/10/26 00:17:45;;;;;;;0.55;0.50;;;12.30;99.90;;;;;;6245616;28;20052;-76
2023/10/26 00:20:46;;;;;;;0.50;0.47;;;12.20;99.90;;;;;;6260545;28;20051;-76
2023/10/26 00:23:48;;;;;;;1.48;0.90;;;12.20;99.90;;;;;;6246440;28;20191;-77
2023/10/26 00:26:50;;;;;;;1.27;0.63;;;12.10;99.90;;;;;;6245307;28;20131;-76
2023/10/26 00:29:53;;;;;;;1.67;0.60;;;12.00;99.90;;;;;;6247591;28;20052;-77
2023/10/26 00:32:54;;;;;;;0.40;0.40;;;12.00;99.90;;;;;;6239004;28;20057;-75
2023/10/26 00:35:57;;;;;;;0.73;0.65;;;12.00;99.90;;;;;;6239660;28;20068;-77
2023/10/26 00:38:59;;;;;;;1.20;1.10;;;12.00;99.90;;;;;;6247149;28;20045;-78
2023/10/26 00:42:01;;;;;;;0.73;0.63;;;12.00;99.90;;;;;;6246789;28;20073;-77
2023/10/26 00:45:05;;;;;;;0.70;0.70;;;12.10;99.90;;;;;;6247708;28;20502;-78
2023/10/26 00:48:06;;;;;;;0.68;0.68;;;12.10;99.90;;;;;;6247871;28;20051;-77
2023/10/26 00:51:08;;;;;;;0.73;0.70;;;12.00;99.90;;;;;;6247519;28;20048;-77
2023/10/26 00:54:10;;;;;;;0.52;0.52;;;12.00;99.90;;;;;;6247716;28;20186;-77
2023/10/26 00:57:14;;;;;;;1.80;0.95;;;12.00;99.90;;;;;;6247881;28;20053;-77
2023/10/26 01:00:17;;;;;;;5.25;0.60;;;12.00;99.90;;;;;;6247449;28;20055;-76
2023/10/26 01:03:20;;;;;;;1.85;0.73;;;11.90;99.90;;;;;;6247021;28;20037;-77
2023/10/26 01:06:22;;;;;;;2.17;0.65;;;11.90;99.90;;;;;;6246558;28;20053;-77
2023/10/26 01:09:23;;;;;;;0.80;0.68;;;11.90;99.90;;;;;;6247802;28;20041;-78
2023/10/26 01:12:26;;;;;;;0.85;0.50;;;11.90;99.90;;;;;;6247853;28;20447;-77
2023/10/26 01:15:29;;;;;;;1.10;0.80;;;12.00;99.90;;;;;;6246743;28;20041;-77
2023/10/26 01:18:31;;;;;;;2.20;0.70;;;12.00;99.90;;;;;;6246985;28;20064;-77
2023/10/26 01:21:48;;;;;;;1.08;0.85;;;12.00;99.90;;;;;;6247715;28;20045;-77
2023/10/26 01:24:49;;;;;;;3.58;0.60;;;12.00;99.90;;;;;;6246754;28;20053;-77
2023/10/26 01:27:51;;;;;;;0.52;0.50;;;12.10;99.90;;;;;;6248175;28;20525;-77
2023/10/26 01:30:53;;;;;;;1.17;1.17;;;12.10;99.90;;;;;;6260378;28;20410;-76
2023/10/26 01:33:55;;;;;;;1.55;0.50;;;12.20;99.90;;;;;;6246258;28;20045;-77
2023/10/26 01:36:58;;;;;;;2.67;0.93;;;12.20;99.90;;;;;;6247313;28;20048;-76
2023/10/26 01:40:00;;;;;;;5.28;0.88;;;12.20;99.90;;;;;;6240425;28;20495;-77
2023/10/26 01:43:02;;;;;;;4.78;1.02;;;12.20;99.90;;;;;;6247675;28;20050;-78
2023/10/26 01:46:04;;;;;;;3.28;1.20;;;12.20;99.90;;;;;;6246901;28;20049;-76
2023/10/26 01:49:06;;;;;;;1.45;0.95;;;12.20;99.90;;;;;;6263570;28;20046;-76
2023/10/26 01:52:09;;;;;;;0.50;0.47;;;12.20;99.90;;;;;;6248885;28;20406;-76
2023/10/26 01:55:11;;;;;;;2.15;1.35;;;12.10;99.90;;;;;;6245950;28;20426;-77
2023/10/26 01:58:12;;;;;;;1.17;0.68;;;12.10;99.90;;;;;;6245564;28;20053;-77
2023/10/26 02:01:14;;;;;;;5.82;1.08;;;12.10;99.90;;;;;;6245793;28;20060;-76
2023/10/26 02:04:16;;;;;;;4.32;0.60;;;12.10;99.90;;;;;;6246443;28;20422;-76
2023/10/26 02:07:19;;;;;;;1.20;0.88;;;12.10;99.90;;;;;;6246612;28;20049;-76
2023/10/26 02:10:23;;;;;;;0.70;0.65;;;12.10;99.90;;;;;;6246682;28;20069;-77
2023/10/26 02:13:25;;;;;;;1.75;1.05;;;12.00;99.90;;;;;;6245899;28;20050;-77
2023/10/26 02:16:27;;;;;;;0.88;0.63;;;12.10;99.90;;;;;;6246539;28;20053;-77
2023/10/26 02:19:28;;;;;;;1.58;1.00;;;12.00;99.90;;;;;;6246050;28;20045;-77
2023/10/26 02:22:31;;;;;;;2.75;0.98;;;12.00;99.90;;;;;;6245744;28;20044;-76
2023/10/26 02:25:33;;;;;;;2.30;0.82;;;12.00;99.90;;;;;;6245863;28;20076;-77
2023/10/26 02:28:35;;;;;;;7.38;0.80;;;12.00;99.90;;;;;;6248983;28;20045;-77
2023/10/26 02:31:36;;;;;;;1.05;0.50;;;12.00;99.90;;;;;;6250933;28;20038;-77
2023/10/26 02:34:38;;;;;;;0.43;0.43;;;12.10;99.90;;;;;;6251495;28;20041;-76
2023/10/26 02:37:41;;;;;;;1.95;0.82;;;12.10;99.90;;;;;;6253996;28;20041;-77
2023/10/26 02:40:43;;;;;;;1.40;0.93;;;12.00;99.90;;;;;;6260674;28;20047;-77
2023/10/26 02:43:45;;;;;;;1.60;0.93;;;12.10;99.90;;;;;;6250108;28;20052;-76
2023/10/26 02:46:46;;;;;;;1.90;0.70;;;12.10;99.90;;;;;;6248468;28;20038;-76
2023/10/26 02:49:48;;;;;;;3.63;1.08;;;12.10;99.90;;;;;;6248772;28;20042;-77
2023/10/26 02:52:51;;;;;;;2.50;1.08;;;12.10;99.90;;;;;;6249623;28;20050;-77
2023/10/26 02:55:53;;;;;;;3.35;0.63;;;12.10;99.90;;;;;;6250182;28;20049;-76
2023/10/26 02:58:55;;;;;;;1.27;0.80;;;12.10;99.90;;;;;;6249458;28;20067;-77
2023/10/26 03:01:57;;;;;;;6.05;1.23;;;12.10;99.90;;;;;;6250036;28;20041;-77
2023/10/26 03:04:58;;;;;;;2.17;0.85;;;12.10;99.90;;;;;;6249520;28;20052;-78
2023/10/26 03:08:02;;;;;;;4.22;0.82;;;12.10;99.90;;;;;;6250252;28;20050;-77
2023/10/26 03:11:03;;;;;;;5.57;0.80;;;12.00;99.90;;;;;;6248900;28;20080;-76
2023/10/26 03:14:05;;;;;;;1.25;1.05;;;12.00;99.90;;;;;;6240711;28;20049;-76
2023/10/26 03:17:07;;;;;;;1.00;0.60;;;11.90;99.90;;;;;;6247816;28;20431;-77
2023/10/26 03:20:09;;;;;;;1.60;0.63;;;11.90;99.90;;;;;;6250759;28;20072;-76
2023/10/26 03:23:12;;;;;;;0.38;0.30;;;11.80;99.90;;;;;;6251149;28;20042;-77
2023/10/26 03:26:14;;;;;;;0.38;0.38;;;11.70;99.90;;;;;;6249974;28;20057;-76
2023/10/26 03:29:15;;;;;;;0.70;0.70;;;11.60;99.90;;;;;;6249511;28;20150;-77
2023/10/26 03:32:17;;;;;;;0.60;0.60;;;11.50;99.90;;;;;;6251198;28;20046;-77
2023/10/26 03:35:19;;;;;;;2.95;1.30;;;11.50;99.90;;;;;;6251525;28;20060;-77
2023/10/26 03:38:22;;;;;;;0.60;0.60;;;11.50;99.90;;;;;;6246174;28;20053;-76
2023/10/26 03:41:23;;;;;;;0.50;0.50;;;11.50;99.90;;;;;;6246728;28;20050;-77
2023/10/26 03:44:25;;;;;;;5.95;0.85;;;11.50;99.90;;;;;;6246618;28;20056;-76
2023/10/26 03:47:27;;;;;;;2.60;0.80;;;11.40;99.90;;;;;;6255546;28;20048;-75
2023/10/26 03:50:29;;;;;;;1.10;0.60;;;11.40;99.90;;;;;;6251698;28;20055;-76
2023/10/26 03:53:32;;;;;;;0.73;0.70;;;11.40;99.90;;;;;;6247031;28;20068;-76
2023/10/26 03:56:33;;;;;;;1.92;1.00;;;11.40;99.90;;;;;;6247500;28;20055;-76
2023/10/26 03:59:35;;;;;;;1.48;0.90;;;11.40;99.90;;;;;;6246935;28;20054;-76
2023/10/26 04:02:37;;;;;;;0.80;0.80;;;11.40;99.90;;;;;;6246359;28;20049;-76
2023/10/26 04:05:38;;;;;;;6.60;1.35;;;11.40;99.90;;;;;;6245939;28;20056;-76
2023/10/26 04:08:41;;;;;;;1.75;1.42;;;11.30;99.90;;;;;;6246368;28;20041;-77
2023/10/26 04:11:44;;;;;;;0.73;0.70;;;11.30;99.90;;;;;;6246866;28;20041;-77
2023/10/26 04:14:46;;;;;;;0.82;0.68;;;11.30;99.90;;;;;;6244841;28;20125;-77
2023/10/26 04:17:48;;;;;;;2.20;0.90;;;11.30;99.90;;;;;;6246957;28;20045;-77
2023/10/26 04:20:49;;;;;;;3.25;0.52;;;11.20;99.90;;;;;;6247080;28;20057;-76
2023/10/26 04:23:52;;;;;;;1.85;0.52;;;11.20;99.90;;;;;;6248094;28;20085;-76
2023/10/26 04:26:54;;;;;;;0.73;0.63;;;11.20;99.90;;;;;;6247658;28;20053;-77
2023/10/26 04:29:56;;;;;;;0.50;0.50;;;11.10;99.90;;;;;;6244746;28;20050;-77
2023/10/26 04:32:57;;;;;;;0.55;0.55;;;11.10;99.90;;;;;;6246458;28;20048;-76
2023/10/26 04:36:00;;;;;;;0.80;0.70;;;11.00;99.90;;;;;;6246898;28;20056;-76
2023/10/26 04:39:04;;;;;;;0.70;0.52;;;11.00;99.90;;;;;;6246411;28;20052;-77
2023/10/26 04:42:06;;;;;;;0.95;0.77;;;10.90;99.90;;;;;;6246510;28;20156;-76
2023/10/26 04:45:08;;;;;;;1.08;1.05;;;10.80;99.90;;;;;;6246176;28;20088;-77
2023/10/26 04:48:10;;;;;;;0.70;0.70;;;10.80;99.90;;;;;;6246647;28;20055;-77
2023/10/26 04:51:12;;;;;;;4.93;1.05;;;10.80;99.90;;;;;;6245208;28;20053;-76
2023/10/26 04:54:15;;;;;;;4.13;0.85;;;10.70;99.90;;;;;;6245885;28;20502;-77
2023/10/26 04:57:16;;;;;;;0.50;0.50;;;10.70;99.90;;;;;;6260739;28;20123;-76
2023/10/26 05:00:18;;;;;;;1.23;0.88;;;10.60;99.90;;;;;;6245772;28;20059;-75
2023/10/26 05:03:20;;;;;;;1.50;0.98;;;10.60;99.90;;;;;;6225401;28;20055;-77
2023/10/26 05:06:21;;;;;;;0.68;0.68;;;10.50;99.90;;;;;;6244533;28;20395;-77
2023/10/26 05:09:25;;;;;;;1.02;0.70;;;10.50;99.90;;;;;;6245824;28;20422;-77
2023/10/26 05:12:27;;;;;;;1.65;0.90;;;10.40;99.90;;;;;;6245306;28;20049;-77
2023/10/26 05:15:28;;;;;;;1.20;1.10;;;10.40;99.90;;;;;;6246456;28;20379;-76
2023/10/26 05:18:30;;;;;;;4.43;1.15;;;10.40;99.90;;;;;;6245565;28;20053;-77
2023/10/26 05:21:32;;;;;;;2.00;1.17;;;10.40;99.90;;;;;;6245484;28;20048;-77
2023/10/26 05:24:35;;;;;;;1.35;0.90;;;10.30;99.90;;;;;;6244076;28;20038;-78
2023/10/26 05:27:37;;;;;;;1.35;1.02;;;10.30;99.90;;;;;;6235806;28;20418;-76
2023/10/26 05:30:39;;;;;;;6.13;2.67;;;10.20;99.90;;;;;;6247201;28;20058;-76
2023/10/26 05:33:41;;;;;;;1.45;1.15;;;10.20;99.90;;;;;;6242887;28;20052;-76
2023/10/26 05:36:43;;;;;;;2.70;2.08;;;10.10;99.90;;;;;;6245563;28;20045;-77
2023/10/26 05:39:46;;;;;;;2.05;1.42;;;10.10;99.90;;;;;;6244002;28;20052;-79
2023/10/26 05:42:48;;;;;;;1.98;1.13;;;10.10;99.90;;;;;;6247153;28;20495;-76
2023/10/26 05:45:50;;;;;;;6.93;1.17;;;10.10;99.90;;;;;;6246251;28;20049;-76
2023/10/26 05:48:51;;;;;;;5.03;1.95;;;10.10;99.90;;;;;;6252566;28;20068;-76
2023/10/26 05:51:53;;;;;;;2.17;1.30;;;10.20;99.90;;;;;;6241356;28;20057;-77
2023/10/26 05:54:56;;;;;;;1.30;0.88;;;10.20;99.90;;;;;;6243063;28;20068;-76
2023/10/26 05:57:58;;;;;;;3.90;1.83;;;10.20;99.90;;;;;;6244155;28;20049;-77
2023/10/26 06:01:00;;;;;;;2.03;1.35;;;10.30;99.90;;;;;;6253235;28;20045;-77
2023/10/26 06:04:02;;;;;;;5.68;2.25;;;10.30;99.90;;;;;;6256460;28;20506;-76
2023/10/26 06:07:04;;;;;;;1.83;1.00;;;10.40;99.90;;;;;;6263200;28;20041;-75
2023/10/26 06:10:09;;;;;;;1.45;1.17;;;10.40;99.90;;;;;;6249842;28;20133;-75
2023/10/26 06:13:13;;;;;;;2.45;1.58;;;10.50;99.90;;;;;;6249456;28;20565;-76
2023/10/26 06:16:16;;;;;;;2.53;1.27;;;10.50;99.90;;;;;;6241545;28;20049;-76
2023/10/26 06:19:17;;;;;;;4.50;1.63;;;10.60;99.90;;;;;;6249460;28;20046;-76
2023/10/26 06:22:19;;;;;;;2.15;1.15;;;10.60;99.90;;;;;;6247958;28;20499;-77
2023/10/26 06:25:23;;;;;;;1.05;1.00;;;10.70;99.90;;;;;;6255635;28;20056;-78
2023/10/26 06:28:25;;;;;;;2.67;1.50;;;10.70;99.90;;;;;;6238792;28;20050;-76
2023/10/26 06:31:26;;;;;;;10.90;1.48;;;10.80;99.90;;;;;;6237166;28;20064;-76
2023/10/26 06:34:30;;;;;;;3.10;1.23;;;10.80;99.90;;;;;;6251124;28;20045;-79
2023/10/26 06:37:31;;;;;;;1.67;1.45;;;10.80;99.90;;;;;;6257946;28;20061;-76
2023/10/26 06:40:34;;;;;;;3.00;1.33;;;10.90;99.90;;;;;;6246901;28;20053;-76
2023/10/26 06:43:36;;;;;;;1.25;1.13;;;11.00;99.90;;;;;;6248322;28;20049;-76
2023/10/26 06:46:38;;;;;;;1.90;1.27;;;11.00;99.90;;;;;;6248236;28;20049;-76
2023/10/26 06:49:41;;;;;;;4.82;1.02;;;11.00;99.90;;;;;;6249990;28;20502;-78
2023/10/26 06:52:42;;;;;;;1.60;1.42;;;11.00;99.90;;;;;;6251691;28;20042;-77
2023/10/26 06:55:45;;;;;;;1.33;1.23;;;11.00;99.90;;;;;;6250877;28;20152;-77
2023/10/26 06:58:47;;;;;;;0.85;0.70;;;11.00;99.90;;;;;;6236914;28;20419;-76
2023/10/26 07:01:49;;;;;;;1.90;1.38;;;11.00;99.90;;;;;;6238639;28;20136;-76
2023/10/26 07:04:51;;;;;;;2.92;1.58;;;11.10;99.90;;;;;;6261579;28;20045;-78
2023/10/26 07:07:53;;;;;;;2.25;1.70;;;11.10;99.90;;;;;;6255538;28;20053;-78
2023/10/26 07:10:56;;;;;;;2.15;1.00;;;11.10;99.90;;;;;;6251747;28;20418;-78
2023/10/26 07:13:58;;;;;;;1.17;1.08;;;11.20;99.90;;;;;;6271857;28;20053;-77
2023/10/26 07:16:59;;;;;;;1.25;1.05;;;11.20;99.90;;;;;;6254783;28;20052;-77
2023/10/26 07:20:02;;;;;;;2.97;0.85;;;11.30;99.90;;;;;;6253047;28;20050;-78
2023/10/26 07:23:04;;;;;;;1.73;0.90;;;11.30;99.90;;;;;;6252476;28;20037;-77
2023/10/26 07:26:07;;;;;;;3.22;0.95;;;11.40;99.90;;;;;;6252044;28;20056;-78
2023/10/26 07:29:08;;;;;;;1.92;1.38;;;11.50;99.90;;;;;;6245702;28;20487;-77
2023/10/26 07:32:10;;;;;;;1.23;1.10;;;11.50;99.90;;;;;;6242659;28;20493;-77
2023/10/26 07:35:14;;;;;;;1.38;1.05;;;11.60;99.90;;;;;;6251916;28;20045;-78
2023/10/26 07:38:16;;;;;;;3.40;1.42;;;11.60;99.90;;;;;;6251457;28;20049;-78
2023/10/26 07:41:19;;;;;;;3.60;0.90;;;11.70;99.90;;;;;;6252313;28;20045;-80
2023/10/26 07:44:20;;;;;;;2.92;1.13;;;11.70;99.90;;;;;;6251026;28;20046;-79
2023/10/26 07:47:22;;;;;;;3.15;1.10;;;11.80;99.90;;;;;;6245106;28;20053;-78
2023/10/26 07:50:24;;;;;;;1.35;1.00;;;11.90;99.90;;;;;;6250830;28;20120;-78
2023/10/26 07:53:28;;;;;;;0.75;0.73;;;12.00;99.90;;;;;;6251094;28;20045;-78
2023/10/26 07:56:31;;;;;;;1.65;1.45;;;12.00;99.90;;;;;;6250841;28;20163;-77
2023/10/26 07:59:33;;;;;;;5.50;1.40;;;12.10;99.90;;;;;;6233297;28;20061;-77
2023/10/26 08:02:34;;;;;;;2.30;1.73;;;12.20;99.90;;;;;;6247486;28;20037;-78
2023/10/26 08:05:36;;;;;;;5.68;1.15;;;12.30;99.90;;;;;;6248807;28;20049;-78
2023/10/26 08:08:38;;;;;;;1.40;1.13;;;12.30;99.90;;;;;;6248131;28;20465;-78
2023/10/26 08:11:41;;;;;;;1.95;1.40;;;12.40;99.90;;;;;;6248580;28;20396;-77
2023/10/26 08:14:43;;;;;;;1.63;1.52;;;12.40;99.90;;;;;;6249516;28;20503;-80
2023/10/26 08:17:45;;;;;;;1.58;1.05;;;12.50;99.90;;;;;;6248077;28;20045;-77
2023/10/26 08:20:51;;;;;;;2.08;1.17;;;12.60;99.90;;;;;;6253110;28;20092;-78
2023/10/26 08:23:53;;;;;;;1.48;0.95;;;12.60;99.90;;;;;;6255873;28;20046;-76
2023/10/26 08:26:56;;;;;;;1.25;1.00;;;12.70;99.90;;;;;;6252697;28;20359;-80
2023/10/26 08:29:58;;;;;;;2.30;1.00;;;12.60;99.90;;;;;;6230357;28;20046;-77
2023/10/26 08:33:04;;;;;;;3.30;1.10;;;12.70;99.90;;;;;;6249873;28;20425;-77
2023/10/26 08:36:06;;;;;;;2.30;1.08;;;12.70;99.90;;;;;;6253015;28;20049;-79
2023/10/26 08:39:07;;;;;;;3.13;0.80;;;12.70;99.90;;;;;;6252700;28;20049;-77
2023/10/26 08:42:11;;;;;;;1.92;1.50;;;12.70;99.90;;;;;;6251920;28;20058;-79
2023/10/26 08:45:18;;;;;;;7.25;1.27;;;12.70;99.90;;;;;;6251187;28;20079;-79
2023/10/26 08:48:20;;;;;;;1.55;1.00;;;12.70;99.90;;;;;;6248828;28;20053;-77
2023/10/26 08:51:22;;;;;;;1.77;1.63;;;12.70;99.90;;;;;;6251933;28;20140;-76
2023/10/26 08:54:24;;;;;;;3.10;2.20;;;12.70;99.90;;;;;;6249863;28;20037;-78
2023/10/26 08:57:27;;;;;;;3.10;2.10;;;12.70;99.90;;;;;;6250976;28;20047;-76
2023/10/26 09:00:30;;;;;;;1.75;1.52;;;12.70;99.90;;;;;;6232904;28;20059;-78
2023/10/26 09:03:34;;;;;;;4.18;1.20;;;12.70;99.90;;;;;;6247235;28;20050;-77
2023/10/26 09:06:44;;;;;;;4.75;1.20;;;12.60;99.90;;;;;;6248637;28;20499;-78
2023/10/26 09:09:45;;;;;;;3.97;1.70;;;12.50;99.90;;;;;;6246889;28;20064;-77
2023/10/26 09:13:00;;;;;;;3.70;1.60;;;12.40;99.90;;;;;;6242852;28;20056;-77
2023/10/26 09:16:02;;;;;;;5.82;1.05;;;12.40;99.90;;;;;;6237321;28;20056;-76
2023/10/26 09:19:04;;;;;;;1.15;1.00;;;12.30;99.90;;;;;;6244837;28;20049;-76
2023/10/26 09:22:08;;;;;;;1.50;1.40;;;12.20;99.90;;;;;;6244817;28;20054;-77
2023/10/26 09:25:12;;;;;;;2.53;1.75;;;12.20;99.90;;;;;;6244352;28;20045;-77
2023/10/26 09:28:15;;;;;;;2.67;1.00;;;12.30;99.90;;;;;;6238659;28;20054;-76
2023/10/26 09:31:17;;;;;;;2.63;1.52;;;12.40;99.90;;;;;;6239704;28;20049;-76
2023/10/26 09:34:19;;;;;;;2.05;0.98;;;12.40;99.90;;;;;;6243973;28;20037;-76
2023/10/26 09:37:21;;;;;;;8.20;1.40;;;12.40;99.90;;;;;;6246273;28;20053;-76
2023/10/26 09:40:23;;;;;;;2.03;1.65;;;12.40;99.90;;;;;;6249877;28;20072;-76
2023/10/26 09:43:26;;;;;;;1.50;1.38;;;12.40;99.90;;;;;;6250133;28;20053;-76
2023/10/26 09:46:27;;;;;;;2.38;1.25;;;12.40;99.90;;;;;;6250018;28;20050;-75
2023/10/26 09:49:29;;;;;;;1.48;1.20;;;12.50;99.90;;;;;;6250234;28;20046;-77
2023/10/26 09:52:31;;;;;;;2.45;1.80;;;12.40;99.90;;;;;;6250233;28;20061;-76
2023/10/26 09:55:33;;;;;;;2.28;1.40;;;12.40;99.90;;;;;;6250114;28;20061;-76
2023/10/26 09:58:40;;;;;;;3.78;1.27;;;12.40;99.90;;;;;;6240329;28;20052;-76
2023/10/26 10:01:42;;;;;;;4.68;1.10;;;12.40;99.90;;;;;;6235527;28;20151;-76
2023/10/26 10:04:45;;;;;;;2.90;1.73;;;12.40;99.90;;;;;;6248994;28;20415;-76
2023/10/26 10:07:46;;;;;;;5.20;1.35;;;12.40;99.90;;;;;;6249634;28;20049;-76
2023/10/26 10:11:16;;;;;;;1.92;1.60;;;12.50;99.90;;;;;;6249052;28;20043;-76
2023/10/26 10:14:55;;;;;;;3.38;2.10;;;12.50;99.90;;;;;;6248949;28;20056;-76
2023/10/26 10:18:06;;;;;;;2.65;1.58;;;12.50;99.90;;;;;;6249108;28;20046;-76
2023/10/26 10:21:34;;;;;;;5.53;2.83;;;12.40;99.90;;;;;;6251027;28;20054;-76
2023/10/26 10:24:51;;;;;;;1.42;1.33;;;12.30;99.90;;;;;;6249967;28;20421;-77
2023/10/26 10:28:11;;;;;;;4.00;1.42;;;12.30;99.90;;;;;;6246001;28;20092;-75
2023/10/26 10:31:36;;;;;;;2.13;1.75;;;12.30;99.90;;;;;;6230121;28;20045;-75
2023/10/26 10:34:43;;;;;;;4.82;1.60;;;12.30;99.90;;;;;;6245747;28;20068;-76
2023/10/26 10:38:23;;;;;;;4.63;1.37;;;12.40;99.90;;;;;;6250864;28;20057;-77
2023/10/26 10:41:26;;;;;;;2.25;1.50;;;12.40;99.90;;;;;;6252608;28;20284;-75
2023/10/26 10:44:29;;;;;;;2.00;1.63;;;12.40;99.90;;;;;;6249482;28;20050;-76
2023/10/26 10:47:32;;;;;;;1.83;1.40;;;12.50;99.90;;;;;;6250265;28;20128;-77
2023/10/26 10:50:34;;;;;;;2.35;1.55;;;12.40;99.90;;;;;;6253320;28;20052;-76
2023/10/26 10:53:36;;;;;;;1.90;1.67;;;12.40;99.90;;;;;;6250952;28;20046;-76
2023/10/26 10:56:39;;;;;;;5.57;2.33;;;12.40;99.90;;;;;;6248821;28;20119;-77
2023/10/26 10:59:40;;;;;;;2.50;1.92;;;12.40;99.90;;;;;;6224966;28;20042;-76
2023/10/26 11:02:49;;;;;;;5.05;2.20;;;12.50;99.90;;;;;;6242497;28;20525;-76
2023/10/26 11:05:51;;;;;;;1.88;1.70;;;12.60;99.90;;;;;;6247303;28;20045;-76
2023/10/26 11:08:52;;;;;;;4.68;2.35;;;12.90;99.90;;;;;;6247682;28;20479;-77
2023/10/26 11:11:54;;;;;;;3.10;2.28;;;13.10;99.90;;;;;;6249142;28;20068;-76
2023/10/26 11:14:56;;;;;;;4.38;1.73;;;13.20;99.90;;;;;;6248931;28;20045;-77
2023/10/26 11:18:00;;;;;;;2.88;1.70;;;13.20;99.90;;;;;;6248564;28;20199;-77
2023/10/26 11:21:01;;;;;;;1.58;1.48;;;13.30;99.90;;;;;;6248612;28;20045;-77
2023/10/26 11:24:03;;;;;;;1.73;1.63;;;13.40;99.90;;;;;;6249966;28;20052;-77
2023/10/26 11:27:10;;;;;;;1.42;1.27;;;13.60;99.90;;;;;;6249119;28;20042;-77
2023/10/26 11:30:12;;;;;;;1.27;1.13;;;13.70;99.90;;;;;;6235207;28;20038;-77
2023/10/26 11:33:37;;;;;;;4.72;1.08;;;13.70;99.90;;;;;;6245988;28;20053;-77
2023/10/26 11:36:39;;;;;;;2.42;1.05;;;13.70;99.90;;;;;;6241494;28;20120;-77
2023/10/26 11:39:49;;;;;;;2.33;0.55;;;13.80;99.90;;;;;;6250346;28;20049;-78
2023/10/26 11:42:53;;;;;;;0.93;0.85;;;14.00;99.90;;;;;;6245773;28;20053;-76
2023/10/26 11:45:55;;;;;;;2.53;1.35;;;14.10;99.90;;;;;;6248180;28;20053;-77
2023/10/26 11:48:58;;;;;;;0.90;0.90;;;14.20;99.90;;;;;;6260506;28;20045;-76
2023/10/26 11:52:00;;;;;;;1.35;1.25;;;14.30;99.90;;;;;;6250418;28;20046;-77
2023/10/26 11:55:02;;;;;;;1.17;1.02;;;14.60;99.90;;;;;;6248343;28;20037;-77
2023/10/26 11:58:04;;;;;;;1.42;1.30;;;14.80;99.90;;;;;;6243587;28;20053;-79
2023/10/26 12:01:06;;;;;;;2.60;1.15;;;15.10;99.90;;;;;;6226559;28;20556;-78
2023/10/26 12:04:13;;;;;;;6.05;1.83;;;15.40;99.90;;;;;;6248257;28;20499;-76
2023/10/26 12:07:14;;;;;;;1.02;0.90;;;15.50;99.90;;;;;;6248957;28;20458;-78
2023/10/26 12:10:18;;;;;;;1.77;1.42;;;15.40;99.90;;;;;;6248943;28;20128;-78
2023/10/26 12:13:19;;;;;;;1.17;1.08;;;15.60;99.90;;;;;;6254099;28;20048;-78
2023/10/26 12:16:21;;;;;;;1.08;0.80;;;15.70;99.90;;;;;;6256063;28;20147;-80
2023/10/26 12:19:24;;;;;;;2.00;1.38;;;15.70;99.90;;;;;;6259174;28;20045;-80
2023/10/26 12:22:26;;;;;;;1.92;1.42;;;15.80;99.90;;;;;;6249909;28;20048;-78
2023/10/26 12:25:28;;;;;;;2.88;1.80;;;15.90;99.90;;;;;;6249869;28;20061;-77
2023/10/26 12:28:29;;;;;;;2.28;1.67;;;15.90;99.90;;;;;;6236587;28;20049;-78
2023/10/26 12:31:31;;;;;;;5.47;1.20;;;16.00;99.90;;;;;;6232527;28;20049;-77
2023/10/26 12:34:34;;;;;;;1.58;1.02;;;16.20;99.90;;;;;;6246679;28;20056;-77
2023/10/26 12:37:37;;;;;;;1.58;1.08;;;16.20;99.90;;;;;;6248492;28;20522;-74
2023/10/26 12:40:39;;;;;;;1.42;1.30;;;16.40;99.90;;;;;;6248019;28;20418;-78
2023/10/26 12:43:40;;;;;;;5.82;1.98;;;16.50;99.90;;;;;;6247972;28;20050;-77
2023/10/26 12:46:42;;;;;;;1.40;1.30;;;16.80;99.90;;;;;;6248203;28;20051;-77
2023/10/26 12:49:45;;;;;;;2.08;1.63;;;16.90;99.90;;;;;;6249542;28;20041;-77
2023/10/26 12:52:48;;;;;;;0.90;0.90;;;17.10;99.90;;;;;;6249444;28;20624;-79
2023/10/26 12:55:50;;;;;;;1.42;0.82;;;17.20;99.90;;;;;;6249923;28;20069;-77
2023/10/26 12:58:51;;;;;;;21.70;14.45;;;17.40;99.90;;;;;;6255892;28;20053;-77
2023/10/26 13:01:53;;;;;;;1.48;1.38;;;17.50;99.90;;;;;;6237645;28;20055;-77
2023/10/26 13:04:56;;;;;;;5.07;1.23;;;17.40;99.90;;;;;;6244875;28;20053;-78
2023/10/26 13:07:58;;;;;;;4.45;2.22;;;17.40;99.90;;;;;;6246956;28;20068;-78
2023/10/26 13:11:00;;;;;;;6.45;5.85;;;17.40;99.90;;;;;;6239659;28;20509;-76
2023/10/26 13:14:01;;;;;;;11.13;5.53;;;17.40;99.90;;;;;;6246901;28;20041;-78
2023/10/26 13:17:03;;;;;;;3.65;2.20;;;17.60;99.90;;;;;;6247044;28;20422;-77
2023/10/26 13:20:07;;;;;;;3.60;1.98;;;17.70;99.90;;;;;;6248234;28;20383;-74
2023/10/26 13:23:09;;;;;;;8.05;3.20;;;17.70;99.90;;;;;;6247703;28;20041;-77
2023/10/26 13:26:11;;;;;;;5.45;1.45;;;17.70;99.90;;;;;;6247958;28;20052;-79
2023/10/26 13:29:13;;;;;;;2.65;2.30;;;17.60;99.90;;;;;;6241395;28;20510;-78
2023/10/26 13:32:15;;;;;;;1.58;1.25;;;17.60;99.90;;;;;;6248048;28;20124;-77
2023/10/26 13:35:18;;;;;;;3.97;2.20;;;17.60;99.90;;;;;;6245868;28;20040;-77
2023/10/26 13:38:19;;;;;;;5.97;4.30;;;17.60;99.90;;;;;;6245321;28;20041;-77
2023/10/26 13:41:23;;;;;;;3.28;2.47;;;17.50;99.90;;;;;;6249160;28;20037;-78
2023/10/26 13:44:25;;;;;;;5.07;1.17;;;17.50;99.90;;;;;;6247831;28;20052;-77
2023/10/26 13:47:26;;;;;;;6.10;1.25;;;17.50;99.90;;;;;;6248670;28;20049;-77
2023/10/26 13:50:29;;;;;;;8.43;2.30;;;17.40;99.90;;;;;;6248001;28;20042;-77
2023/10/26 13:53:31;;;;;;;3.83;1.30;;;17.30;99.90;;;;;;6245819;28;20064;-75
2023/10/26 13:56:34;;;;;;;8.82;2.17;;;17.20;99.90;;;;;;6244377;28;20053;-75
2023/10/26 13:59:37;;;;;;;3.00;1.48;;;17.20;99.90;;;;;;6244964;28;20486;-75
2023/10/26 14:02:39;;;;;;;7.80;1.92;;;17.20;99.90;;;;;;6244730;28;20526;-76
2023/10/26 14:05:50;;;;;;;4.68;1.20;;;17.00;99.90;;;;;;6244880;28;20037;-77
2023/10/26 14:08:52;;;;;;;4.95;1.48;;;16.90;99.90;;;;;;6271172;28;20124;-77
2023/10/26 14:11:55;;;;;;;4.60;1.23;;;16.80;99.90;;;;;;6242543;28;20772;-75
2023/10/26 14:14:58;;;;;;;9.30;1.73;;;16.60;99.90;;;;;;6242940;28;20049;-76
2023/10/26 14:17:59;;;;;;;6.15;0.90;;;16.30;99.90;;;;;;6242659;28;20060;-76
2023/10/26 14:21:03;;;;;;;6.20;1.02;;;16.20;99.90;;;;;;6242932;28;20056;-75
2023/10/26 14:24:08;;;;;;;4.88;1.40;;;16.10;99.90;;;;;;6245753;28;20052;-75
2023/10/26 14:27:10;;;;;;;3.42;0.93;;;16.00;99.90;;;;;;6247368;28;20042;-75
2023/10/26 14:30:12;;;;;;;1.33;0.90;;;15.90;99.90;;;;;;6242551;28;20045;-75
2023/10/26 14:33:14;;;;;;;2.58;1.10;;;15.80;99.90;;;;;;6251471;28;20086;-75
2023/10/26 14:36:17;;;;;;;2.95;1.33;;;15.60;99.90;;;;;;6255465;28;20561;-76
2023/10/26 14:39:19;;;;;;;3.38;1.08;;;15.60;99.90;;;;;;6247766;28;20046;-75
2023/10/26 14:42:21;;;;;;;3.70;0.88;;;15.50;99.90;;;;;;6247191;28;20653;-76
2023/10/26 14:45:24;;;;;;;3.60;1.60;;;15.40;99.90;;;;;;6246804;28;20495;-75
2023/10/26 14:48:25;;;;;;;2.63;1.02;;;15.40;99.90;;;;;;6247376;28;20049;-76
2023/10/26 14:51:28;;;;;;;23.67;15.32;;;15.30;99.90;;;;;;6251266;28;20056;-75
2023/10/26 14:54:31;;;;;;;5.60;2.58;;;15.30;99.90;;;;;;6248933;28;20053;-75
2023/10/26 14:57:33;;;;;;;9.18;3.13;;;15.30;99.90;;;;;;6248506;28;20067;-76
2023/10/26 15:00:37;;;;;;;5.95;2.42;;;15.20;99.90;;;;;;6238640;28;20049;-75
2023/10/26 15:03:40;;;;;;;11.45;1.98;;;15.10;99.90;;;;;;6247508;28;20052;-75
2023/10/26 15:06:43;;;;;;;5.50;1.48;;;15.10;99.90;;;;;;6246644;28;20034;-74
2023/10/26 15:09:44;;;;;;;5.47;1.88;;;15.00;99.90;;;;;;6251228;28;20052;-75
2023/10/26 15:12:46;;;;;;;5.30;1.48;;;14.90;99.90;;;;;;6246620;28;20063;-76
2023/10/26 15:15:57;;;;;;;8.93;2.13;;;14.90;99.90;;;;;;6249756;28;20059;-76
2023/10/26 15:18:59;;;;;;;5.05;1.88;;;14.90;99.90;;;;;;6271400;28;20499;-77
2023/10/26 15:22:02;;;;;;;6.10;1.33;;;14.80;99.90;;;;;;6251182;28;20076;-75
2023/10/26 15:25:04;;;;;;;1.98;1.08;;;14.80;99.90;;;;;;6245978;28;20041;-75
2023/10/26 15:28:06;;;;;;;1.75;1.48;;;14.70;99.90;;;;;;6235739;28;20057;-75
2023/10/26 15:31:07;;;;;;;1.50;1.38;;;14.70;99.90;;;;;;6236287;28;20045;-75
2023/10/26 15:34:09;;;;;;;9.35;2.08;;;14.70;99.90;;;;;;6244698;28;20427;-76
2023/10/26 15:37:13;;;;;;;6.13;1.70;;;14.70;99.90;;;;;;6245459;28;20131;-74
2023/10/26 15:40:15;;;;;;;3.05;1.25;;;14.60;99.90;;;;;;6247128;28;20423;-76
2023/10/26 15:43:17;;;;;;;5.75;1.33;;;14.60;99.90;;;;;;6245678;28;20037;-76
2023/10/26 15:46:18;;;;;;;3.47;1.45;;;14.60;99.90;;;;;;6245124;28;20557;-76
2023/10/26 15:49:20;;;;;;;3.08;1.20;;;14.60;99.90;;;;;;6245620;28;20048;-75
2023/10/26 15:52:23;;;;;;;7.80;1.50;;;14.60;99.90;;;;;;6245160;28;20041;-75